Time;durP1;ratioP1;P1;durP2;ratioP2;P2;SDS_P1;SDS_P2;PMS_P1;PMS_P2;Temp;Humidity;BMP_temperature;BMP_pressure;BME280_temperature;BME280_humidity;BME280_pressure;Samples;Min_cycle;Max_cycle;Signal;HPM_P1;HPM_P2
2022/05/14 01:37:57;;;;;;;;;;;15.10;96.40;;;;;;4955263;28;19985;-76
2022/05/14 01:40:24;;;;;;;;;;;15.10;96.40;;;;;;4946953;28;19953;-76
2022/05/14 01:42:52;;;;;;;;;;;15.10;96.50;;;;;;4983475;28;19930;-76
2022/05/14 01:45:19;;;;;;;;;;;15.00;96.50;;;;;;4991750;28;19934;-76
2022/05/14 01:47:46;;;;;;;;;;;15.00;96.50;;;;;;4985320;28;19930;-76
2022/05/14 01:50:13;;;;;;;;;;;15.00;96.50;;;;;;4961178;28;19926;-76
2022/05/14 01:52:40;;;;;;;;;;;15.00;96.70;;;;;;4976917;28;19944;-76
2022/05/14 01:55:09;;;;;;;;;;;15.00;96.80;;;;;;4994177;28;20336;-74
2022/05/14 01:57:36;;;;;;;;;;;14.90;96.40;;;;;;4962673;28;19953;-75
2022/05/14 02:00:04;;;;;;;;;;;14.90;96.40;;;;;;4974146;28;20324;-75
2022/05/14 02:02:53;;;;;;;;;;;14.90;96.40;;;;;;4982233;28;19989;-75
2022/05/14 02:05:20;;;;;;;;;;;14.90;96.40;;;;;;4968732;28;20023;-76
2022/05/14 02:07:51;;;;;;;;;;;14.80;96.40;;;;;;4962764;28;20308;-76
2022/05/14 02:10:19;;;;;;;;;;;14.80;96.40;;;;;;4964439;28;19926;-74
2022/05/14 02:12:46;;;;;;;;;;;14.80;96.40;;;;;;4982985;28;19996;-76
2022/05/14 02:15:14;;;;;;;;;;;14.80;96.40;;;;;;4980523;28;19989;-75
2022/05/14 02:17:42;;;;;;;;;;;14.70;96.40;;;;;;4992156;28;19933;-76
2022/05/14 02:20:09;;;;;;;;;;;14.70;96.40;;;;;;4979521;28;20012;-76
2022/05/14 02:22:38;;;;;;;;;;;14.70;96.40;;;;;;4980182;28;20304;-74
2022/05/14 02:25:09;;;;;;;;;;;14.70;96.40;;;;;;4994990;28;20471;-76
2022/05/14 02:27:37;;;;;;;;;;;14.70;96.40;;;;;;4961164;28;20336;-76
2022/05/14 02:30:05;;;;;;;;;;;14.60;96.20;;;;;;4965463;28;19957;-76
2022/05/14 02:32:32;;;;;;;;;;;14.60;96.40;;;;;;4969778;28;19933;-76
2022/05/14 02:34:59;;;;;;;;;;;14.60;96.40;;;;;;4981733;28;19934;-76
2022/05/14 02:37:27;;;;;;;;;;;14.50;96.40;;;;;;4993999;28;19933;-75
2022/05/14 02:39:54;;;;;;;;;;;14.50;96.40;;;;;;4976469;28;19941;-76
2022/05/14 02:42:22;;;;;;;;;;;14.50;96.40;;;;;;4999894;28;19937;-76
2022/05/14 02:44:50;;;;;;;;;;;14.50;96.40;;;;;;4992849;28;20425;-76
2022/05/14 02:47:18;;;;;;;;;;;14.40;96.30;;;;;;4962311;28;20427;-75
2022/05/14 02:49:46;;;;;;;;;;;14.40;96.40;;;;;;4978893;28;19933;-76
2022/05/14 02:52:15;;;;;;;;;;;14.40;96.30;;;;;;4961263;28;20427;-76
2022/05/14 02:54:43;;;;;;;;;;;14.40;96.40;;;;;;4994812;28;20690;-76
2022/05/14 02:57:11;;;;;;;;;;;14.30;96.30;;;;;;4997830;28;19938;-77
2022/05/14 02:59:38;;;;;;;;;;;14.30;96.40;;;;;;4979147;28;19930;-76
2022/05/14 03:02:06;;;;;;;;;;;14.30;96.30;;;;;;4965820;28;20405;-75
2022/05/14 03:04:37;;;;;;;;;;;14.30;96.30;;;;;;4981543;28;19954;-75
2022/05/14 03:07:06;;;;;;;;;;;14.30;96.30;;;;;;4993629;28;19934;-76
2022/05/14 03:09:33;;;;;;;;;;;14.30;96.40;;;;;;4964383;28;19926;-75
2022/05/14 03:12:01;;;;;;;;;;;14.20;96.30;;;;;;4989412;28;19952;-75
2022/05/14 03:14:28;;;;;;;;;;;14.20;96.30;;;;;;4974182;28;20400;-77
2022/05/14 03:16:56;;;;;;;;;;;14.20;96.30;;;;;;4961879;28;20024;-76
2022/05/14 03:19:25;;;;;;;;;;;14.10;96.20;;;;;;4984577;28;20375;-76
2022/05/14 03:21:53;;;;;;;;;;;14.10;96.20;;;;;;4976564;28;19940;-76
2022/05/14 03:24:20;;;;;;;;;;;14.10;96.20;;;;;;4965177;28;19963;-76
2022/05/14 03:26:48;;;;;;;;;;;14.10;96.20;;;;;;4969811;28;19926;-76
2022/05/14 03:29:15;;;;;;;;;;;14.10;96.10;;;;;;4978991;28;19926;-74
2022/05/14 03:31:42;;;;;;;;;;;14.10;96.40;;;;;;4982181;28;19929;-76
2022/05/14 03:34:11;;;;;;;;;;;14.00;96.00;;;;;;4965411;28;20353;-76
2022/05/14 03:36:40;;;;;;;;;;;14.00;96.00;;;;;;4996988;28;20366;-76
2022/05/14 03:39:09;;;;;;;;;;;14.00;96.10;;;;;;4977055;28;19965;-76
2022/05/14 03:41:37;;;;;;;;;;;13.90;96.10;;;;;;4963771;28;20024;-76
2022/05/14 03:44:05;;;;;;;;;;;13.90;96.10;;;;;;4968822;28;19968;-75
2022/05/14 03:46:32;;;;;;;;;;;13.90;96.10;;;;;;4963457;28;20476;-74
2022/05/14 03:49:00;;;;;;;;;;;13.90;96.10;;;;;;4961838;28;19936;-76
2022/05/14 03:51:28;;;;;;;;;;;13.90;96.10;;;;;;4958651;28;19953;-76
2022/05/14 03:53:57;;;;;;;;;;;13.80;96.00;;;;;;4980663;28;19949;-75
2022/05/14 03:56:24;;;;;;;;;;;13.80;95.90;;;;;;4976038;28;19929;-75
2022/05/14 03:58:51;;;;;;;;;;;13.80;95.90;;;;;;4967515;28;20380;-74
2022/05/14 04:01:19;;;;;;;;;;;13.80;95.90;;;;;;4969735;28;20024;-77
2022/05/14 04:03:46;;;;;;;;;;;13.80;96.00;;;;;;4961079;28;19973;-76
2022/05/14 04:06:13;;;;;;;;;;;13.70;95.90;;;;;;4977116;28;20388;-76
2022/05/14 04:08:40;;;;;;;;;;;13.70;95.80;;;;;;4970266;28;19956;-76
2022/05/14 04:11:09;;;;;;;;;;;13.70;95.90;;;;;;5002080;28;20395;-74
2022/05/14 04:13:37;;;;;;;;;;;13.70;96.00;;;;;;4975662;28;19952;-76
2022/05/14 04:16:06;;;;;;;;;;;13.70;96.00;;;;;;4997961;28;19933;-76
2022/05/14 04:18:34;;;;;;;;;;;13.60;95.90;;;;;;4970134;28;20148;-76
2022/05/14 04:21:02;;;;;;;;;;;13.60;95.90;;;;;;4998359;28;19934;-76
2022/05/14 04:23:31;;;;;;;;;;;13.60;95.90;;;;;;4973481;28;20049;-76
2022/05/14 04:26:00;;;;;;;;;;;13.60;95.90;;;;;;4970528;28;20347;-75
2022/05/14 04:28:28;;;;;;;;;;;13.60;95.90;;;;;;4968457;28;20404;-74
2022/05/14 04:30:56;;;;;;;;;;;13.50;95.70;;;;;;4975606;28;19932;-76
2022/05/14 04:33:24;;;;;;;;;;;13.50;95.80;;;;;;5002903;28;19925;-76
2022/05/14 04:35:51;;;;;;;;;;;13.50;95.80;;;;;;4973932;28;20391;-75
2022/05/14 04:38:18;;;;;;;;;;;13.50;95.90;;;;;;4983106;28;23142;-75
2022/05/14 04:40:45;;;;;;;;;;;13.50;95.90;;;;;;5002516;28;20554;-76
2022/05/14 04:43:13;;;;;;;;;;;13.50;95.80;;;;;;4972086;28;19980;-76
2022/05/14 04:45:42;;;;;;;;;;;13.40;95.70;;;;;;4985954;28;20392;-75
2022/05/14 04:48:10;;;;;;;;;;;13.40;95.70;;;;;;5005004;28;20359;-75
2022/05/14 04:50:38;;;;;;;;;;;13.40;95.70;;;;;;4968442;28;20024;-75
2022/05/14 04:53:06;;;;;;;;;;;13.40;95.70;;;;;;4988054;28;19940;-76
2022/05/14 04:55:33;;;;;;;;;;;13.40;95.70;;;;;;4967720;28;19985;-76
2022/05/14 04:58:00;;;;;;;;;;;13.40;95.70;;;;;;4973836;28;19934;-76
2022/05/14 05:00:28;;;;;;;;;;;13.40;95.70;;;;;;4968276;28;19934;-76
2022/05/14 05:05:41;;;;;;;;;;;13.30;95.80;;;;;;4987685;28;19973;-76
2022/05/14 05:08:09;;;;;;;;;;;13.30;95.70;;;;;;4966707;28;19933;-74
2022/05/14 05:10:37;;;;;;;;;;;13.20;95.60;;;;;;4969627;28;19981;-75
2022/05/14 05:13:04;;;;;;;;;;;13.10;96.00;;;;;;4970271;28;19934;-76
2022/05/14 05:15:31;;;;;;;;;;;12.90;96.30;;;;;;4982989;28;20012;-75
2022/05/14 05:17:59;;;;;;;;;;;12.80;96.70;;;;;;4974950;28;19957;-74
2022/05/14 05:20:26;;;;;;;;;;;12.80;96.90;;;;;;4986440;28;19926;-76
2022/05/14 05:22:53;;;;;;;;;;;12.70;97.00;;;;;;4996302;28;19929;-76
2022/05/14 05:25:20;;;;;;;;;;;12.70;97.10;;;;;;4964080;28;19937;-74
2022/05/14 05:27:47;;;;;;;;;;;12.70;97.20;;;;;;4971535;28;20431;-76
2022/05/14 05:30:14;;;;;;;;;;;12.80;97.30;;;;;;4984784;28;19934;-76
2022/05/14 05:32:41;;;;;;;;;;;12.80;97.30;;;;;;4979072;28;19926;-75
2022/05/14 05:35:11;;;;;;;;;;;12.80;97.30;;;;;;4995560;28;19926;-75
2022/05/14 05:37:38;;;;;;;;;;;12.80;97.40;;;;;;4987402;28;19972;-74
2022/05/14 05:40:06;;;;;;;;;;;12.80;97.40;;;;;;4978105;28;20406;-75
2022/05/14 05:42:33;;;;;;;;;;;12.80;97.40;;;;;;4959363;28;20689;-74
2022/05/14 05:45:00;;;;;;;;;;;12.80;97.50;;;;;;4970963;28;20633;-76
2022/05/14 05:47:27;;;;;;;;;;;12.90;97.60;;;;;;4980204;28;19926;-76
2022/05/14 05:49:54;;;;;;;;;;;12.90;97.70;;;;;;4977224;28;19926;-76
2022/05/14 05:52:23;;;;;;;;;;;12.90;97.70;;;;;;4978911;28;20300;-76
2022/05/14 05:57:35;;;;;;;;;;;13.00;97.80;;;;;;4961608;28;19937;-76
2022/05/14 06:00:04;;;;;;;;;;;13.10;97.90;;;;;;4985774;28;19926;-75
2022/05/14 06:02:38;;;;;;;;;;;13.10;97.90;;;;;;4987087;28;20020;-76
2022/05/14 06:05:06;;;;;;;;;;;13.10;98.00;;;;;;4975483;28;19949;-74
2022/05/14 06:07:34;;;;;;;;;;;13.20;98.10;;;;;;4969789;28;20013;-75
2022/05/14 06:10:01;;;;;;;;;;;13.20;98.10;;;;;;4977637;28;19938;-76
2022/05/14 06:12:29;;;;;;;;;;;13.20;98.20;;;;;;4974334;28;19932;-76
2022/05/14 06:14:59;;;;;;;;;;;13.20;98.20;;;;;;4965902;28;19981;-75
2022/05/14 06:17:25;;;;;;;;;;;13.30;98.30;;;;;;4982281;28;19926;-74
2022/05/14 06:19:52;;;;;;;;;;;13.30;98.40;;;;;;4981781;28;19935;-76
2022/05/14 06:22:20;;;;;;;;;;;13.40;98.40;;;;;;4973369;28;19930;-73
2022/05/14 06:24:49;;;;;;;;;;;13.40;98.50;;;;;;4990308;28;19930;-76
2022/05/14 06:27:19;;;;;;;;;;;13.40;98.50;;;;;;4983587;28;20075;-75
2022/05/14 06:29:46;;;;;;;;;;;13.40;98.60;;;;;;4976620;28;20133;-76
2022/05/14 06:32:13;;;;;;;;;;;13.50;98.70;;;;;;4981666;28;20020;-75
2022/05/14 06:34:40;;;;;;;;;;;13.50;98.70;;;;;;4978826;28;19941;-74
2022/05/14 06:37:07;;;;;;;;;;;13.50;98.70;;;;;;4988763;28;20012;-75
2022/05/14 06:39:33;;;;;;;;;;;13.50;98.80;;;;;;4975796;28;20450;-76
2022/05/14 06:42:04;;;;;;;;;;;13.60;98.80;;;;;;4983603;28;20306;-76
2022/05/14 06:44:37;;;;;;;;;;;13.60;98.90;;;;;;4957554;28;20403;-75
2022/05/14 06:47:05;;;;;;;;;;;13.60;98.90;;;;;;4966697;28;20187;-75
2022/05/14 06:49:31;;;;;;;;;;;13.60;99.00;;;;;;4984636;28;20291;-75
2022/05/14 06:52:01;;;;;;;;;;;13.60;99.00;;;;;;4970197;28;19926;-75
2022/05/14 06:54:29;;;;;;;;;;;13.70;99.10;;;;;;4989062;28;20459;-76
2022/05/14 06:56:56;;;;;;;;;;;13.70;99.10;;;;;;4977714;28;19925;-76
2022/05/14 06:59:27;;;;;;;;;;;13.70;99.20;;;;;;4982324;28;20287;-76
2022/05/14 07:01:54;;;;;;;;;;;13.70;99.20;;;;;;4982985;28;20000;-75
2022/05/14 07:07:05;;;;;;;;;;;13.70;99.30;;;;;;4985916;28;19953;-74
2022/05/14 07:09:32;;;;;;;;;;;13.80;99.30;;;;;;4990697;28;19985;-76
2022/05/14 07:12:03;;;;;;;;;;;13.80;99.40;;;;;;4986647;28;19980;-74
2022/05/14 07:14:32;;;;;;;;;;;13.80;99.40;;;;;;4982804;28;19941;-75
2022/05/14 07:16:59;;;;;;;;;;;13.80;99.40;;;;;;4979161;28;20542;-76
2022/05/14 07:19:26;;;;;;;;;;;13.80;99.40;;;;;;4981330;28;20001;-75
2022/05/14 07:21:54;;;;;;;;;;;13.80;99.40;;;;;;4973950;28;19926;-75
2022/05/14 07:24:22;;;;;;;;;;;13.90;99.50;;;;;;4984945;28;19926;-76
2022/05/14 07:26:51;;;;;;;;;;;13.90;99.40;;;;;;4974078;28;19929;-72
2022/05/14 07:29:19;;;;;;;;;;;14.00;99.90;;;;;;4998806;28;19925;-73
2022/05/14 07:31:49;;;;;;;;;;;14.20;99.90;;;;;;4980009;23;19981;-79
2022/05/14 07:34:16;;;;;;;;;;;14.40;99.90;;;;;;4966332;28;19936;-81
2022/05/14 07:36:46;;;;;;;;;;;14.60;99.90;;;;;;4963224;28;19926;-80
2022/05/14 07:39:13;;;;;;;;;;;14.70;99.90;;;;;;4958848;28;20029;-79
2022/05/14 07:41:41;;;;;;;;;;;14.70;99.90;;;;;;4964942;28;19933;-83
2022/05/14 07:44:09;;;;;;;;;;;14.70;99.80;;;;;;4972754;28;19933;-77
2022/05/14 07:46:37;;;;;;;;;;;14.60;99.90;;;;;;4971577;28;20392;-79
2022/05/14 07:49:10;;;;;;;;;;;14.50;99.90;;;;;;4969005;28;19930;-79
2022/05/14 07:51:37;;;;;;;;;;;14.40;99.90;;;;;;4960998;28;19929;-78
2022/05/14 07:54:05;;;;;;;;;;;14.40;99.90;;;;;;4971573;28;19930;-81
2022/05/14 07:56:32;;;;;;;;;;;14.40;99.90;;;;;;4969596;28;20036;-78
2022/05/14 07:58:59;;;;;;;;;;;14.40;99.80;;;;;;4966614;28;19926;-78
2022/05/14 08:01:26;;;;;;;;;;;14.40;99.80;;;;;;4964873;28;20452;-78
2022/05/14 08:03:53;;;;;;;;;;;14.40;99.80;;;;;;4965894;28;19926;-78
2022/05/14 08:06:22;;;;;;;;;;;14.40;99.70;;;;;;4967667;28;19930;-78
2022/05/14 08:08:49;;;;;;;;;;;14.40;99.70;;;;;;4968658;28;19926;-79
2022/05/14 08:11:16;;;;;;;;;;;14.40;99.70;;;;;;4966205;28;19930;-78
2022/05/14 08:13:43;;;;;;;;;;;14.40;99.60;;;;;;4968552;28;19937;-81
2022/05/14 08:16:10;;;;;;;;;;;14.40;99.70;;;;;;4967384;28;19933;-77
2022/05/14 08:18:37;;;;;;;;;;;14.40;99.70;;;;;;4968313;28;20028;-79
2022/05/14 08:26:31;;;;;;;;;;;14.40;99.60;;;;;;4964231;28;19955;-80
2022/05/14 08:28:58;;;;;;;;;;;14.40;99.60;;;;;;4967100;28;20956;-81
2022/05/14 08:31:25;;;;;;;;;;;14.40;99.60;;;;;;4979342;28;20024;-79
2022/05/14 08:33:52;;;;;;;;;;;14.40;99.60;;;;;;5005360;28;19926;-80
2022/05/14 08:36:18;;;;;;;;;;;14.40;99.70;;;;;;4999237;28;19961;-79
2022/05/14 08:38:47;;;;;;;;;;;14.40;99.70;;;;;;5006437;28;20723;-81
2022/05/14 08:41:15;;;;;;;;;;;14.40;99.70;;;;;;5000467;28;20319;-79
2022/05/14 08:43:44;;;;;;;;;;;14.50;99.70;;;;;;5010259;28;20380;-79
2022/05/14 08:46:13;;;;;;;;;;;14.50;99.70;;;;;;4988195;28;19925;-78
2022/05/14 08:48:40;;;;;;;;;;;14.50;99.70;;;;;;5004402;28;19933;-79
2022/05/14 08:51:09;;;;;;;;;;;14.50;99.80;;;;;;4995587;28;19926;-85
2022/05/14 08:53:37;;;;;;;;;;;14.50;99.80;;;;;;5009270;28;19964;-81
2022/05/14 08:56:17;;;;;;;;;;;14.50;99.80;;;;;;5003848;28;20356;-80
2022/05/14 08:58:49;;;;;;;;;;;14.50;99.80;;;;;;4986038;28;19925;-83
2022/05/14 09:01:20;;;;;;;;;;;14.60;99.90;;;;;;5003236;28;19948;-78
2022/05/14 09:03:47;;;;;;;;;;;14.60;99.90;;;;;;4992416;28;19932;-78
2022/05/14 09:06:14;;;;;;;;;;;14.60;99.90;;;;;;5002094;28;19926;-79
2022/05/14 09:08:41;;;;;;;;;;;14.60;99.90;;;;;;5008299;28;19934;-78
2022/05/14 09:11:18;;;;;;;;;;;14.60;99.90;;;;;;5008601;28;19996;-81
2022/05/14 09:13:47;;;;;;;;;;;14.60;99.90;;;;;;4999750;28;20293;-79
2022/05/14 09:16:20;;;;;;;;;;;14.70;99.90;;;;;;5007917;28;20372;-80
2022/05/14 09:18:48;;;;;;;;;;;14.70;99.90;;;;;;5004635;28;19957;-79
2022/05/14 09:21:18;;;;;;;;;;;14.70;99.90;;;;;;4985892;28;19937;-80
2022/05/14 09:23:47;;;;;;;;;;;14.70;99.90;;;;;;5004497;28;20431;-80
2022/05/14 09:26:17;;;;;;;;;;;14.70;99.90;;;;;;5006322;28;20014;-79
2022/05/14 09:28:50;;;;;;;;;;;14.80;99.90;;;;;;5000387;28;19932;-79
2022/05/14 09:31:24;;;;;;;;;;;14.70;99.90;;;;;;4984900;28;20367;-81
2022/05/14 09:34:00;;;;;;;;;;;14.80;99.90;;;;;;5002094;28;20024;-79
2022/05/14 09:36:28;;;;;;;;;;;14.80;99.90;;;;;;5006546;28;19945;-82
2022/05/14 09:39:01;;;;;;;;;;;14.80;99.90;;;;;;5007420;28;19933;-78
2022/05/14 09:41:28;;;;;;;;;;;14.80;99.90;;;;;;5000511;28;20024;-79
2022/05/14 09:43:56;;;;;;;;;;;14.80;99.90;;;;;;5004009;28;20142;-82
2022/05/14 09:46:28;;;;;;;;;;;14.80;99.90;;;;;;4987126;28;19979;-83
2022/05/14 09:49:01;;;;;;;;;;;14.90;99.90;;;;;;4985401;28;19929;-79
2022/05/14 09:51:29;;;;;;;;;;;14.90;99.90;;;;;;5004456;28;20350;-79
2022/05/14 09:53:56;;;;;;;;;;;14.90;99.90;;;;;;4999579;28;20418;-78
2022/05/14 09:56:36;;;;;;;;;;;14.90;99.90;;;;;;4990264;28;19925;-80
2022/05/14 09:59:11;;;;;;;;;;;14.90;99.90;;;;;;4998767;28;21111;-78
2022/05/14 10:01:41;;;;;;;;;;;15.00;99.90;;;;;;4979517;28;19929;-80
2022/05/14 10:04:23;;;;;;;;;;;15.00;99.90;;;;;;4984548;28;19964;-79
2022/05/14 10:06:53;;;;;;;;;;;15.00;99.90;;;;;;4995983;28;19926;-78
2022/05/14 10:09:23;;;;;;;;;;;15.00;99.90;;;;;;5013568;28;19933;-81
2022/05/14 10:11:52;;;;;;;;;;;15.00;99.90;;;;;;5006874;28;19929;-80
2022/05/14 10:14:28;;;;;;;;;;;15.10;99.90;;;;;;5003058;28;20016;-78
2022/05/14 10:17:00;;;;;;;;;;;15.10;99.90;;;;;;5003337;28;20027;-78
2022/05/14 10:19:37;;;;;;;;;;;15.10;99.90;;;;;;5003787;28;20038;-79
2022/05/14 10:22:08;;;;;;;;;;;15.10;99.90;;;;;;4985972;28;19937;-79
2022/05/14 10:27:43;;;;;;;;;;;15.20;99.90;;;;;;5005062;28;19983;-81
2022/05/14 10:30:16;;;;;;;;;;;15.30;99.90;;;;;;5004765;28;19932;-79
2022/05/14 10:32:43;;;;;;;;;;;15.30;99.90;;;;;;4980780;28;19930;-79
2022/05/14 10:35:15;;;;;;;;;;;15.30;99.90;;;;;;5007242;28;20525;-78
2022/05/14 10:37:47;;;;;;;;;;;15.40;99.90;;;;;;5012938;28;19930;-79
2022/05/14 10:40:18;;;;;;;;;;;15.40;99.90;;;;;;5004297;28;19926;-80
2022/05/14 10:42:49;;;;;;;;;;;15.40;99.90;;;;;;5005575;28;19925;-79
2022/05/14 10:45:20;;;;;;;;;;;15.50;99.90;;;;;;4989968;28;19925;-79
2022/05/14 10:47:48;;;;;;;;;;;15.50;99.90;;;;;;5007517;28;19930;-81
2022/05/14 10:50:17;;;;;;;;;;;15.50;99.90;;;;;;5005766;28;19926;-80
2022/05/14 10:52:45;;;;;;;;;;;15.50;99.90;;;;;;5005962;28;20486;-79
2022/05/14 10:55:18;;;;;;;;;;;15.50;99.90;;;;;;5011597;28;19932;-78
2022/05/14 10:57:47;;;;;;;;;;;15.60;99.90;;;;;;5002585;28;20638;-79
2022/05/14 11:00:24;;;;;;;;;;;15.60;99.90;;;;;;4989436;28;20028;-80
2022/05/14 11:02:56;;;;;;;;;;;15.60;99.90;;;;;;5006476;28;19980;-79
2022/05/14 11:05:30;;;;;;;;;;;15.70;99.90;;;;;;5009582;28;20387;-81
2022/05/14 11:08:06;;;;;;;;;;;15.70;99.90;;;;;;5005467;28;19926;-79
2022/05/14 11:10:34;;;;;;;;;;;15.70;99.90;;;;;;5006381;28;19933;-81
2022/05/14 11:13:09;;;;;;;;;;;15.80;99.90;;;;;;4990381;28;20606;-79
2022/05/14 11:15:39;;;;;;;;;;;15.80;99.90;;;;;;4999586;28;19946;-80
2022/05/14 11:18:07;;;;;;;;;;;15.80;99.90;;;;;;4987814;28;19925;-80
2022/05/14 11:20:34;;;;;;;;;;;15.80;99.90;;;;;;5002531;28;19925;-80
2022/05/14 11:23:06;;;;;;;;;;;15.90;99.90;;;;;;5004997;28;19925;-82
2022/05/14 11:25:32;;;;;;;;;;;15.90;99.90;;;;;;5000810;28;19959;-79
2022/05/14 11:28:03;;;;;;;;;;;16.00;99.90;;;;;;5009364;28;19940;-82
2022/05/14 11:30:32;;;;;;;;;;;16.00;99.90;;;;;;4987013;28;19930;-82
2022/05/14 11:33:01;;;;;;;;;;;16.00;99.90;;;;;;5004620;28;20398;-80
2022/05/14 11:35:41;;;;;;;;;;;16.10;99.90;;;;;;5008896;28;20392;-79
2022/05/14 11:38:16;;;;;;;;;;;16.10;99.90;;;;;;4983910;28;19980;-80
2022/05/14 11:40:44;;;;;;;;;;;16.10;99.90;;;;;;5005385;28;20008;-80
2022/05/14 11:43:21;;;;;;;;;;;16.10;99.90;;;;;;5005722;28;19925;-79
2022/05/14 11:45:52;;;;;;;;;;;16.20;99.90;;;;;;5003992;28;19940;-81
2022/05/14 11:48:25;;;;;;;;;;;16.20;99.90;;;;;;5006871;28;19934;-79
2022/05/14 11:50:57;;;;;;;;;;;16.20;99.90;;;;;;5008546;28;20391;-81
2022/05/14 11:53:29;;;;;;;;;;;16.30;99.90;;;;;;5006955;28;20296;-81
2022/05/14 11:55:58;;;;;;;;;;;16.30;99.90;;;;;;4988021;28;19926;-80
2022/05/14 11:58:29;;;;;;;;;;;16.30;99.90;;;;;;5003364;28;19929;-83
2022/05/14 12:00:57;;;;;;;;;;;16.30;99.90;;;;;;4999771;28;19929;-82
2022/05/14 12:03:27;;;;;;;;;;;16.40;99.90;;;;;;4992078;28;19926;-82
2022/05/14 12:05:57;;;;;;;;;;;16.40;99.90;;;;;;4997282;28;19932;-79
2022/05/14 12:08:50;;;;;;;;;;;16.50;99.90;;;;;;4994651;28;19933;-79
2022/05/14 12:11:22;;;;;;;;;;;16.50;99.90;;;;;;4998377;28;20036;-81
2022/05/14 12:13:54;;;;;;;;;;;16.50;99.90;;;;;;4996540;28;21513;-82
2022/05/14 12:16:27;;;;;;;;;;;16.60;99.90;;;;;;5009719;28;19932;-80
2022/05/14 12:18:56;;;;;;;;;;;16.60;99.90;;;;;;5000667;28;20360;-80
2022/05/14 12:21:23;;;;;;;;;;;16.60;99.90;;;;;;5006112;28;19926;-80
2022/05/14 12:23:50;;;;;;;;;;;16.70;99.90;;;;;;5002783;28;19929;-80
2022/05/14 12:26:22;;;;;;;;;;;16.70;99.90;;;;;;4989440;28;20012;-80
2022/05/14 12:28:49;;;;;;;;;;;16.70;99.90;;;;;;5001533;28;19929;-80
2022/05/14 12:34:03;;;;;;;;;;;16.80;99.90;;;;;;5005255;28;19953;-81
2022/05/14 12:36:33;;;;;;;;;;;16.80;99.90;;;;;;5006627;28;19934;-80
2022/05/14 12:39:03;;;;;;;;;;;16.90;99.90;;;;;;5010216;28;20335;-79
2022/05/14 12:41:32;;;;;;;;;;;16.90;99.90;;;;;;4995543;28;20311;-81
2022/05/14 12:44:04;;;;;;;;;;;17.00;99.90;;;;;;5008119;28;19930;-79
2022/05/14 12:46:31;;;;;;;;;;;17.00;99.90;;;;;;5000350;28;19925;-79
2022/05/14 12:48:58;;;;;;;;;;;17.00;99.90;;;;;;5002174;28;20004;-80
2022/05/14 12:51:27;;;;;;;;;;;17.10;99.90;;;;;;4998586;28;20570;-80
2022/05/14 12:53:54;;;;;;;;;;;17.10;99.90;;;;;;5006683;28;19941;-83
2022/05/14 12:56:22;;;;;;;;;;;17.20;99.90;;;;;;5000714;28;19925;-80
2022/05/14 12:58:49;;;;;;;;;;;17.30;99.90;;;;;;5006629;28;19930;-79
2022/05/14 13:01:18;;;;;;;;;;;17.30;99.90;;;;;;5006163;28;21081;-81
2022/05/14 13:03:46;;;;;;;;;;;17.40;99.90;;;;;;5009219;28;20118;-81
2022/05/14 13:06:16;;;;;;;;;;;17.40;99.90;;;;;;5003137;28;19934;-80
2022/05/14 13:08:46;;;;;;;;;;;17.50;99.90;;;;;;4988480;28;20392;-83
2022/05/14 13:11:15;;;;;;;;;;;17.60;99.90;;;;;;5009664;28;19932;-79
2022/05/14 13:13:42;;;;;;;;;;;;;;;;;;5002528;28;20328;-83
2022/05/14 13:16:11;;;;;;;;;;;17.70;99.90;;;;;;5002831;28;19996;-80
2022/05/14 13:18:41;;;;;;;;;;;17.70;99.90;;;;;;4998927;28;20512;-80
2022/05/14 13:21:15;;;;;;;;;;;17.80;99.90;;;;;;5010070;28;19926;-80
2022/05/14 13:23:51;;;;;;;;;;;17.80;99.90;;;;;;5004443;28;19952;-80
2022/05/14 13:26:26;;;;;;;;;;;17.90;99.90;;;;;;5006594;28;21040;-79
2022/05/14 13:28:53;;;;;;;;;;;18.00;99.90;;;;;;5006557;28;19925;-83
2022/05/14 13:33:58;;;;;;;;;;;18.10;99.90;;;;;;4952827;28;19930;-76
2022/05/14 13:39:12;;;;;;;;;;;18.20;99.90;;;;;;4963237;28;19921;-77
2022/05/14 13:41:43;;;;;;;;;;;18.30;99.90;;;;;;4958486;28;20021;-77
2022/05/14 13:44:15;;;;;;;;;;;18.30;99.90;;;;;;4970327;28;19934;-76
2022/05/14 13:46:44;;;;;;;;;;;18.40;99.90;;;;;;4947750;28;20305;-75
2022/05/14 13:49:20;;;;;;;;;;;18.40;99.90;;;;;;4947601;28;19970;-76
2022/05/14 13:51:51;;;;;;;;;;;18.50;99.90;;;;;;4946498;28;19934;-75
2022/05/14 13:54:28;;;;;;;;;;;18.60;99.90;;;;;;4950086;28;20367;-76
2022/05/14 13:57:00;;;;;;;;;;;18.60;99.90;;;;;;4946235;28;20491;-76
2022/05/14 13:59:28;;;;;;;;;;;18.70;99.90;;;;;;4941569;28;19933;-76
2022/05/14 14:02:07;;;;;;;;;;;18.70;99.90;;;;;;4943204;28;20014;-76
2022/05/14 14:04:35;;;;;;;;;;;18.80;99.90;;;;;;4946892;28;20333;-75
2022/05/14 14:07:03;;;;;;;;;;;18.90;99.90;;;;;;4944241;28;20405;-76
2022/05/14 14:09:31;;;;;;;;;;;18.90;99.90;;;;;;4950541;28;20392;-75
2022/05/14 14:11:58;;;;;;;;;;;19.00;99.80;;;;;;4947571;28;19934;-75
2022/05/14 14:14:27;;;;;;;;;;;19.00;99.90;;;;;;4943669;28;20320;-75
2022/05/14 14:16:54;;;;;;;;;;;19.10;99.80;;;;;;4947562;28;19926;-75
2022/05/14 14:19:21;;;;;;;;;;;19.20;99.90;;;;;;4950219;28;19930;-77
2022/05/14 14:21:48;;;;;;;;;;;19.20;99.90;;;;;;4949489;28;20037;-75
2022/05/14 14:24:16;;;;;;;;;;;19.20;99.90;;;;;;4950680;28;19931;-77
2022/05/14 14:26:43;;;;;;;;;;;19.30;99.90;;;;;;4933010;28;19985;-76
2022/05/14 14:29:10;;;;;;;;;;;19.40;99.80;;;;;;4949939;28;20420;-76
2022/05/14 14:31:38;;;;;;;;;;;19.40;99.90;;;;;;4952033;28;19950;-77
2022/05/14 14:34:05;;;;;;;;;;;19.50;99.90;;;;;;4953596;28;20012;-77
2022/05/14 14:36:32;;;;;;;;;;;19.50;99.90;;;;;;4928647;29;19959;-77
2022/05/14 14:38:59;;;;;;;;;;;19.50;99.90;;;;;;4930971;28;20314;-76
2022/05/14 14:41:26;;;;;;;;;;;19.50;99.90;;;;;;4955108;28;19930;-76
2022/05/14 14:43:53;;;;;;;;;;;19.60;99.90;;;;;;4946368;28;19933;-77
2022/05/14 14:46:20;;;;;;;;;;;19.60;99.90;;;;;;4955463;28;19933;-78
2022/05/14 14:48:53;;;;;;;;;;;19.70;99.80;;;;;;4960015;28;19930;-76
2022/05/14 14:51:23;;;;;;;;;;;19.80;99.30;;;;;;4934984;28;19969;-76
2022/05/14 14:53:51;;;;;;;;;;;19.80;99.20;;;;;;4948208;28;20389;-76
2022/05/14 14:56:18;;;;;;;;;;;19.90;99.20;;;;;;4962772;28;19933;-77
2022/05/14 14:58:45;;;;;;;;;;;19.90;99.00;;;;;;4953783;28;19933;-78
2022/05/14 15:01:14;;;;;;;;;;;19.90;98.60;;;;;;4950495;28;19934;-77
2022/05/14 15:03:43;;;;;;;;;;;19.90;98.60;;;;;;4954074;28;19930;-77
2022/05/14 15:06:12;;;;;;;;;;;20.00;99.00;;;;;;4933479;28;19926;-75
2022/05/14 15:08:40;;;;;;;;;;;20.00;98.80;;;;;;4956385;28;20413;-77
2022/05/14 15:11:08;;;;;;;;;;;20.00;99.30;;;;;;4964244;28;19965;-77
2022/05/14 15:13:36;;;;;;;;;;;20.10;98.90;;;;;;4952406;28;19954;-77
2022/05/14 15:16:05;;;;;;;;;;;20.10;98.30;;;;;;4948712;28;19982;-77
2022/05/14 15:18:31;;;;;;;;;;;20.10;99.20;;;;;;4964478;28;19930;-77
2022/05/14 15:20:58;;;;;;;;;;;20.10;99.40;;;;;;4960825;28;19926;-76
2022/05/14 15:23:27;;;;;;;;;;;20.10;99.30;;;;;;4960976;28;19926;-77
2022/05/14 15:25:55;;;;;;;;;;;20.10;99.90;;;;;;4961917;28;20269;-76
2022/05/14 15:28:22;;;;;;;;;;;20.20;99.70;;;;;;4958962;28;19930;-76
2022/05/14 15:30:49;;;;;;;;;;;20.20;99.80;;;;;;4963245;28;19941;-76
2022/05/14 15:33:16;;;;;;;;;;;20.20;99.60;;;;;;4956371;28;20456;-76
2022/05/14 15:35:43;;;;;;;;;;;20.30;99.50;;;;;;4958618;28;19926;-78
2022/05/14 15:38:10;;;;;;;;;;;20.40;98.50;;;;;;4940266;28;19931;-77
2022/05/14 15:40:41;;;;;;;;;;;20.40;98.70;;;;;;4932894;28;19926;-77
2022/05/14 15:43:09;;;;;;;;;;;20.50;97.30;;;;;;4962970;28;20026;-76
2022/05/14 15:45:41;;;;;;;;;;;20.50;97.60;;;;;;4961204;28;19934;-77
2022/05/14 15:48:13;;;;;;;;;;;20.50;98.10;;;;;;4959681;28;19927;-77
2022/05/14 15:50:40;;;;;;;;;;;20.60;98.10;;;;;;4949923;28;19933;-77
2022/05/14 15:53:08;;;;;;;;;;;20.60;98.60;;;;;;4956285;28;19930;-77
2022/05/14 15:55:35;;;;;;;;;;;20.70;97.30;;;;;;4936404;28;19965;-76
2022/05/14 15:58:03;;;;;;;;;;;20.70;97.30;;;;;;4954402;28;19935;-76
2022/05/14 16:00:30;;;;;;;;;;;20.70;97.00;;;;;;4963229;28;20013;-76
2022/05/14 16:02:58;;;;;;;;;;;20.80;97.90;;;;;;4957960;28;19926;-76
2022/05/14 16:05:26;;;;;;;;;;;20.80;97.30;;;;;;4953655;28;19933;-76
2022/05/14 16:07:53;;;;;;;;;;;20.90;96.40;;;;;;4950999;28;19969;-76
2022/05/14 16:15:55;;;;;;;;;;;20.90;97.30;;;;;;4948199;28;20344;-76
2022/05/14 16:18:23;;;;;;;;;;;20.90;97.30;;;;;;4949406;28;19947;-76
2022/05/14 16:20:50;;;;;;;;;;;21.00;97.80;;;;;;4937444;28;19933;-75
2022/05/14 16:23:17;;;;;;;;;;;20.90;98.00;;;;;;4958459;28;20424;-76
2022/05/14 16:25:44;;;;;;;;;;;21.00;97.10;;;;;;4963931;28;20305;-77
2022/05/14 16:28:12;;;;;;;;;;;21.10;97.70;;;;;;4957030;28;19930;-77
2022/05/14 16:30:40;;;;;;;;;;;21.10;97.10;;;;;;4954389;28;19927;-78
2022/05/14 16:33:07;;;;;;;;;;;21.10;97.40;;;;;;4964620;28;19926;-76
2022/05/14 16:35:34;;;;;;;;;;;21.20;97.10;;;;;;4957809;28;20420;-76